Dayton, Nevada
Current Conditions -  °F | °C
As of 5:35 PM on Friday 19 Dec 2014 (Local Time) from KCXP Reporting Station
Light Rain Light Rain  
Wind Chill: 38°   Ceiling: 3400
Heat Index: 41°   Visibility: 10mi
Dew Point: 36°   Wind: 5mph
Humidity: 81%   Direction: 340°NNW
Pressure: 30.13"   Gusts: NA
Location:  39.24°N, 119.6°W
Report Text: KCXP 200135Z AUTO 34004KT 10SM -RA BKN034 OVC042 05/02 A3013 RMK AO2
Loading
Personal Weather Stations






























Interactive Weather Map New forecast layout! Learn more

10-Day Weather Forecast

Advertisements
Track Severe Weather on mobile